createdAt,value
2022-08-18T00:00:46.873Z,39.88
2022-08-18T00:02:28.774Z,41.58
2022-08-18T00:04:03.742Z,40.00
2022-08-18T00:05:48.456Z,39.85
2022-08-18T00:07:22.889Z,38.00
2022-08-18T00:08:54.589Z,40.05
2022-08-18T00:10:27.059Z,38.03
2022-08-18T00:11:58.746Z,41.38
2022-08-18T00:13:30.444Z,40.58
2022-08-18T00:15:04.648Z,40.40
2022-08-18T00:16:36.364Z,41.17
2022-08-18T00:18:08.018Z,39.92
2022-08-18T00:19:45.981Z,38.67
2022-08-18T00:21:20.525Z,41.13
2022-08-18T00:22:53.224Z,41.42
2022-08-18T00:24:25.289Z,41.95
2022-08-18T00:25:59.447Z,41.35
2022-08-18T00:27:31.486Z,41.42
2022-08-18T00:29:03.793Z,41.92
2022-08-18T00:30:41.301Z,41.08
2022-08-18T00:32:14.394Z,41.78
2022-08-18T00:33:46.110Z,46.70
2022-08-18T00:35:20.907Z,41.45
2022-08-18T00:36:54.412Z,42.53
2022-08-18T00:38:26.103Z,42.80
2022-08-18T00:39:57.798Z,43.90
2022-08-18T00:41:30.015Z,39.10
2022-08-18T00:43:07.317Z,46.83
2022-08-18T00:44:39.093Z,48.72
2022-08-18T00:46:15.624Z,48.45
2022-08-18T00:47:47.627Z,49.72
2022-08-18T00:49:19.289Z,50.67
2022-08-18T00:50:54.280Z,47.78
2022-08-18T00:52:27.408Z,50.50
2022-08-18T00:54:03.106Z,47.85
2022-08-18T00:55:35.760Z,50.00
2022-08-18T00:57:08.951Z,49.53
2022-08-18T00:58:44.324Z,50.13
2022-08-18T01:00:16.184Z,49.97
2022-08-18T01:01:50.231Z,51.33
2022-08-18T01:03:25.058Z,51.55
2022-08-18T01:05:02.748Z,47.83
2022-08-18T01:06:47.524Z,47.88
2022-08-18T01:08:28.573Z,48.45
2022-08-18T01:10:01.173Z,47.95
2022-08-18T01:11:33.937Z,50.75
2022-08-18T01:13:06.313Z,48.67
2022-08-18T01:14:38.484Z,48.83
2022-08-18T01:16:57.069Z,50.67
2022-08-18T01:18:47.914Z,50.75
2022-08-18T01:20:52.967Z,48.47
2022-08-18T01:22:29.348Z,49.08
2022-08-18T01:24:04.727Z,49.33
2022-08-18T01:25:56.198Z,50.50
2022-08-18T01:27:31.930Z,47.70
2022-08-18T01:29:05.194Z,49.45
2022-08-18T01:30:48.451Z,50.53
2022-08-18T01:32:22.948Z,48.40
2022-08-18T01:33:54.738Z,49.40
2022-08-18T01:35:27.392Z,47.78
2022-08-18T01:36:59.340Z,43.17
2022-08-18T01:38:33.924Z,45.03
2022-08-18T01:41:24.379Z,38.30
2022-08-18T01:42:04.506Z,43.15
2022-08-18T01:43:36.504Z,39.25
2022-08-18T01:45:09.503Z,41.20
2022-08-18T01:46:41.802Z,39.40
2022-08-18T01:48:13.807Z,39.58
2022-08-18T01:49:45.498Z,36.88
2022-08-18T01:51:19.700Z,42.20
2022-08-18T01:52:53.379Z,41.05
2022-08-18T01:54:30.127Z,42.95
2022-08-18T01:56:05.453Z,41.63
2022-08-18T01:57:44.957Z,44.10
2022-08-18T01:59:17.267Z,45.88
2022-08-18T02:00:48.921Z,47.47
2022-08-18T02:02:26.157Z,50.55
2022-08-18T02:04:23.420Z,47.33
2022-08-18T02:05:51.812Z,46.22
2022-08-18T02:07:24.132Z,48.72
2022-08-18T02:09:06.346Z,45.97
2022-08-18T02:10:40.088Z,45.85
2022-08-18T02:12:13.968Z,48.95
2022-08-18T02:13:45.705Z,50.10
2022-08-18T02:15:17.618Z,48.95
2022-08-18T02:16:49.623Z,47.65
2022-08-18T02:18:47.202Z,47.70
2022-08-18T02:20:19.115Z,46.88
2022-08-18T02:21:52.018Z,47.13
2022-08-18T02:23:24.242Z,48.58
2022-08-18T02:24:57.141Z,48.38
2022-08-18T02:26:28.786Z,46.85
2022-08-18T02:28:01.864Z,47.20
2022-08-18T02:29:34.576Z,46.92
2022-08-18T02:31:08.389Z,47.58
2022-08-18T02:32:43.386Z,47.67
2022-08-18T02:34:15.134Z,50.05
2022-08-18T02:35:53.546Z,50.58
2022-08-18T02:37:25.394Z,47.88
2022-08-18T02:38:59.780Z,50.67
2022-08-18T02:40:33.818Z,49.03
2022-08-18T02:42:06.207Z,50.67
2022-08-18T02:43:41.744Z,49.60
2022-08-18T02:45:14.012Z,50.33
2022-08-18T02:46:45.723Z,49.60
2022-08-18T02:48:21.771Z,48.90
2022-08-18T02:49:53.464Z,52.53
2022-08-18T02:51:26.022Z,50.67
2022-08-18T02:52:57.896Z,49.88
2022-08-18T02:54:29.577Z,53.80
2022-08-18T02:56:40.458Z,51.80
2022-08-18T02:58:13.441Z,50.88
2022-08-18T02:59:47.470Z,50.88
2022-08-18T03:01:21.538Z,50.95
2022-08-18T03:02:54.495Z,49.97
2022-08-18T03:04:30.444Z,49.88
2022-08-18T03:06:02.393Z,50.15
2022-08-18T03:07:34.247Z,49.25
2022-08-18T03:09:07.879Z,50.42
2022-08-18T03:10:39.554Z,48.00
2022-08-18T03:12:11.253Z,50.00
2022-08-18T03:13:43.387Z,46.85
2022-08-18T03:15:16.572Z,45.17
2022-08-18T03:16:53.479Z,45.75
2022-08-18T03:18:26.772Z,43.70
2022-08-18T03:19:58.472Z,42.30
2022-08-18T03:21:36.410Z,43.08
2022-08-18T03:23:09.756Z,39.13
2022-08-18T03:24:41.900Z,40.55
2022-08-18T03:26:16.100Z,40.30
2022-08-18T03:27:47.861Z,38.42
2022-08-18T03:29:19.768Z,38.97
2022-08-18T03:30:52.776Z,36.47
2022-08-18T03:32:24.472Z,38.25
2022-08-18T03:33:59.638Z,38.58
2022-08-18T03:35:31.476Z,37.00
2022-08-18T03:37:03.164Z,32.95
2022-08-18T03:38:35.076Z,35.92
2022-08-18T03:40:07.805Z,36.80
2022-08-18T03:41:44.016Z,35.95
2022-08-18T03:43:50.938Z,36.33
2022-08-18T03:45:24.349Z,36.78
2022-08-18T03:46:58.102Z,35.53
2022-08-18T03:48:29.918Z,36.35
2022-08-18T03:50:01.671Z,35.65
2022-08-18T03:51:34.049Z,32.20
2022-08-18T03:53:05.737Z,34.38
2022-08-18T03:54:39.123Z,34.83
2022-08-18T03:56:15.817Z,33.10
2022-08-18T03:57:52.709Z,32.83
2022-08-18T03:59:27.007Z,36.03
2022-08-18T04:00:58.809Z,34.33
2022-08-18T04:02:31.873Z,35.10
2022-08-18T04:04:05.846Z,35.30
2022-08-18T04:05:39.617Z,34.95
2022-08-18T04:07:17.417Z,35.15
2022-08-18T04:08:51.204Z,34.90
2022-08-18T04:10:23.050Z,34.42
2022-08-18T04:11:55.601Z,32.45
2022-08-18T04:13:27.250Z,30.05
2022-08-18T04:14:58.921Z,32.40
2022-08-18T04:16:32.370Z,30.15
2022-08-18T04:18:08.604Z,32.15
2022-08-18T04:19:40.828Z,31.88
2022-08-18T04:21:13.706Z,32.28
2022-08-18T04:22:46.556Z,33.22
2022-08-18T04:24:18.541Z,31.52
2022-08-18T04:25:56.141Z,34.97
2022-08-18T04:27:28.801Z,36.13
2022-08-18T04:29:03.685Z,34.58
2022-08-18T04:30:36.501Z,36.88
2022-08-18T04:32:08.339Z,36.33
2022-08-18T04:33:42.020Z,35.20
2022-08-18T04:35:14.306Z,20.58
2022-08-18T04:36:46.708Z,34.22
2022-08-18T04:38:18.695Z,35.55
2022-08-18T04:39:50.442Z,36.03
2022-08-18T04:41:26.241Z,35.80
2022-08-18T04:42:58.098Z,33.92
2022-08-18T04:44:29.803Z,34.13
2022-08-18T04:46:02.151Z,19.98
2022-08-18T04:47:36.023Z,34.05
2022-08-18T04:49:10.780Z,33.15
2022-08-18T04:50:43.334Z,34.97
2022-08-18T04:52:40.900Z,33.70
2022-08-18T04:54:13.219Z,33.90
2022-08-18T04:55:48.279Z,32.72
2022-08-18T04:57:21.590Z,25.23
2022-08-18T04:58:55.278Z,19.92
2022-08-18T05:00:27.000Z,21.52
2022-08-18T05:02:05.658Z,21.88
2022-08-18T05:03:38.379Z,19.80
2022-08-18T05:05:23.553Z,21.60
2022-08-18T05:06:55.223Z,20.15
2022-08-18T05:08:27.091Z,20.85
2022-08-18T05:09:58.890Z,20.63
2022-08-18T05:11:33.520Z,21.40
2022-08-18T05:13:06.584Z,21.40
2022-08-18T05:14:38.374Z,19.80
2022-08-18T05:16:16.826Z,21.95
2022-08-18T05:17:51.397Z,28.50
2022-08-18T05:19:26.058Z,23.58
2022-08-18T05:21:01.209Z,25.38
2022-08-18T05:22:37.661Z,20.98
2022-08-18T05:24:10.360Z,19.77
2022-08-18T05:25:42.155Z,20.17
2022-08-18T05:27:14.400Z,28.55
2022-08-18T05:28:47.147Z,21.25
2022-08-18T05:30:18.914Z,21.85
2022-08-18T05:31:52.556Z,24.50
2022-08-18T05:33:24.712Z,26.83
2022-08-18T05:34:56.567Z,30.33
2022-08-18T05:37:01.258Z,31.45
2022-08-18T05:38:47.955Z,31.77
2022-08-18T05:40:24.314Z,31.65
2022-08-18T05:42:03.013Z,33.50
2022-08-18T05:43:36.769Z,30.90
2022-08-18T05:45:23.977Z,23.00
2022-08-18T05:47:00.265Z,20.50
2022-08-18T05:48:32.369Z,22.83
2022-08-18T05:50:07.033Z,21.65
2022-08-18T05:51:42.156Z,24.58
2022-08-18T05:53:16.863Z,29.17
2022-08-18T05:55:14.182Z,25.15
2022-08-18T05:56:49.893Z,20.40
2022-08-18T05:58:33.323Z,22.23
2022-08-18T06:00:09.193Z,30.98
2022-08-18T06:01:52.021Z,31.67
2022-08-18T06:03:29.879Z,30.60
2022-08-18T06:05:27.513Z,20.05
2022-08-18T06:07:05.555Z,20.38
2022-08-18T06:08:42.564Z,24.92
2022-08-18T06:10:15.095Z,23.92
2022-08-18T06:11:47.214Z,22.42
2022-08-18T06:13:20.558Z,21.38
2022-08-18T06:14:55.972Z,20.98
2022-08-18T06:16:44.510Z,20.85
2022-08-18T06:18:37.554Z,20.48
2022-08-18T06:20:18.451Z,19.52
2022-08-18T06:22:02.608Z,19.50
2022-08-18T06:23:43.370Z,20.00
2022-08-18T06:25:22.988Z,24.80
2022-08-18T06:26:59.365Z,29.90
2022-08-18T06:28:43.564Z,22.90
2022-08-18T06:30:19.711Z,32.35
2022-08-18T06:32:02.949Z,31.45
2022-08-18T06:33:50.214Z,32.05
2022-08-18T06:35:34.161Z,31.35
2022-08-18T06:37:12.859Z,31.85
2022-08-18T06:38:55.770Z,32.57
2022-08-18T06:40:27.724Z,33.10
2022-08-18T06:41:59.789Z,32.60
2022-08-18T06:43:34.218Z,33.83
2022-08-18T06:45:13.065Z,34.22
2022-08-18T06:46:49.463Z,33.65
2022-08-18T06:48:31.679Z,33.47
2022-08-18T06:50:09.705Z,32.22
2022-08-18T06:51:41.540Z,33.45
2022-08-18T06:53:27.597Z,33.13
2022-08-18T06:55:04.521Z,34.53
2022-08-18T06:56:47.932Z,33.70
2022-08-18T06:58:27.135Z,34.22
2022-08-18T07:00:02.238Z,32.38
2022-08-18T07:01:34.079Z,35.35
2022-08-18T07:03:11.859Z,34.13
2022-08-18T07:04:59.705Z,34.63
2022-08-18T07:06:31.613Z,35.53
2022-08-18T07:08:15.297Z,34.03
2022-08-18T07:09:50.254Z,32.83
2022-08-18T07:11:26.321Z,36.40
2022-08-18T07:13:15.825Z,34.35
2022-08-18T07:14:51.124Z,33.80
2022-08-18T07:16:54.912Z,34.92
2022-08-18T07:20:00.664Z,36.65
2022-08-18T07:21:34.377Z,35.22
2022-08-18T07:23:07.966Z,34.85
2022-08-18T07:24:42.758Z,36.40
2022-08-18T07:26:19.118Z,35.53
2022-08-18T07:27:56.058Z,35.95
2022-08-18T07:29:28.913Z,35.67
2022-08-18T07:31:25.210Z,35.13
2022-08-18T07:33:04.921Z,34.47
2022-08-18T07:36:11.551Z,33.17
2022-08-18T07:37:51.638Z,35.50
2022-08-18T07:39:27.904Z,34.60
2022-08-18T07:41:05.109Z,35.60
2022-08-18T07:42:53.998Z,36.35
2022-08-18T07:44:45.910Z,33.72
2022-08-18T07:46:27.042Z,34.00
2022-08-18T07:48:27.297Z,34.53
2022-08-18T07:50:23.075Z,35.22
2022-08-18T07:51:57.444Z,33.67
2022-08-18T07:53:42.553Z,34.95
2022-08-18T07:55:29.065Z,35.22
2022-08-18T07:57:08.869Z,35.17
2022-08-18T07:58:48.251Z,33.58
2022-08-18T08:00:41.450Z,34.72
2022-08-18T08:02:29.339Z,33.92
2022-08-18T08:04:25.023Z,32.78
2022-08-18T08:06:08.574Z,32.33
2022-08-18T08:07:48.883Z,33.45
2022-08-18T08:09:26.142Z,34.10
2022-08-18T08:11:09.993Z,34.03
2022-08-18T08:12:45.962Z,34.75
2022-08-18T08:14:36.965Z,34.00
2022-08-18T08:16:20.079Z,32.95
2022-08-18T08:17:59.111Z,33.10
2022-08-18T08:20:02.212Z,33.42
2022-08-18T08:21:40.416Z,33.78
2022-08-18T08:23:24.029Z,33.53
2022-08-18T08:25:03.360Z,34.65
2022-08-18T08:26:51.847Z,33.72
2022-08-18T08:28:37.021Z,32.63
2022-08-18T08:30:12.480Z,33.47
2022-08-18T08:31:50.189Z,32.33
2022-08-18T08:33:26.848Z,32.63
2022-08-18T08:35:05.688Z,30.05
2022-08-18T08:36:40.417Z,30.88
2022-08-18T08:38:40.031Z,29.48
2022-08-18T08:40:15.792Z,27.27
2022-08-18T08:41:51.732Z,28.55
2022-08-18T08:43:29.852Z,27.00
2022-08-18T08:45:06.586Z,26.25
2022-08-18T08:46:46.675Z,25.35
2022-08-18T08:48:25.083Z,25.45
2022-08-18T08:50:02.026Z,25.65
2022-08-18T08:51:39.484Z,26.55
2022-08-18T08:53:21.366Z,26.85
2022-08-18T08:55:00.084Z,24.02
2022-08-18T08:56:36.694Z,23.02
2022-08-18T08:58:20.970Z,21.25
2022-08-18T08:59:58.442Z,21.42
2022-08-18T09:01:37.804Z,20.23
2022-08-18T09:03:30.643Z,19.20
2022-08-18T09:05:09.944Z,18.42
2022-08-18T09:06:52.236Z,18.90
2022-08-18T09:08:42.772Z,17.30
2022-08-18T09:10:39.526Z,16.85
2022-08-18T09:12:34.560Z,16.45
2022-08-18T09:14:45.963Z,15.45
2022-08-18T09:16:27.854Z,15.18
2022-08-18T09:18:16.026Z,14.48
2022-08-18T09:20:01.107Z,14.48
2022-08-18T09:21:40.956Z,13.85
2022-08-18T09:23:19.878Z,12.95
2022-08-18T09:24:54.341Z,12.98
2022-08-18T09:26:40.957Z,13.70
2022-08-18T09:28:15.910Z,13.52
2022-08-18T09:29:51.761Z,13.68
2022-08-18T09:31:25.201Z,13.40
2022-08-18T09:33:19.092Z,14.27
2022-08-18T09:35:05.435Z,12.43
2022-08-18T09:36:59.178Z,12.10
2022-08-18T09:38:50.439Z,11.93
2022-08-18T09:41:02.278Z,12.88
2022-08-18T09:42:49.790Z,11.45
2022-08-18T09:45:04.927Z,11.13
2022-08-18T09:46:56.021Z,11.05
2022-08-18T09:48:36.241Z,11.55
2022-08-18T09:50:52.281Z,10.55
2022-08-18T09:52:49.207Z,10.43
2022-08-18T09:54:25.213Z,12.35
2022-08-18T09:56:04.785Z,11.43
2022-08-18T09:57:42.348Z,10.98
2022-08-18T09:59:52.977Z,11.43
2022-08-18T10:03:43.455Z,11.52
2022-08-18T10:05:34.381Z,11.55
2022-08-18T10:09:37.411Z,11.38
2022-08-18T10:11:28.590Z,10.77
2022-08-18T10:13:15.403Z,11.20
2022-08-18T10:15:08.915Z,11.20
2022-08-18T10:17:21.578Z,11.82
2022-08-18T10:18:54.057Z,12.93
2022-08-18T10:20:38.646Z,11.55
2022-08-18T10:22:13.787Z,11.00
2022-08-18T10:24:03.144Z,11.52
2022-08-18T10:25:47.835Z,10.38
2022-08-18T10:27:49.072Z,11.25
2022-08-18T10:29:44.660Z,10.52
2022-08-18T10:31:16.420Z,10.98
2022-08-18T10:32:54.034Z,11.25
2022-08-18T10:34:40.693Z,10.75
2022-08-18T10:36:46.152Z,11.57
2022-08-18T10:38:36.893Z,12.70
2022-08-18T10:40:16.483Z,12.25
2022-08-18T10:42:06.569Z,12.52
2022-08-18T10:43:57.402Z,11.27
2022-08-18T10:45:32.422Z,11.18
2022-08-18T10:47:12.074Z,10.50
2022-08-18T10:48:44.353Z,11.02
2022-08-18T10:50:23.095Z,10.60
2022-08-18T10:52:12.534Z,10.75
2022-08-18T10:55:47.695Z,10.55
2022-08-18T10:57:30.758Z,10.73
2022-08-18T10:59:17.198Z,11.57
2022-08-18T11:01:05.813Z,12.60
2022-08-18T11:03:02.014Z,11.20
2022-08-18T11:04:41.093Z,11.85
2022-08-18T11:06:23.449Z,12.00
2022-08-18T11:08:01.313Z,11.23
2022-08-18T11:09:33.640Z,12.27
2022-08-18T11:11:37.274Z,11.05
2022-08-18T11:13:08.961Z,11.77
2022-08-18T11:15:22.149Z,11.60
2022-08-18T11:17:06.894Z,11.65
2022-08-18T11:18:43.808Z,11.05
2022-08-18T11:20:22.537Z,10.93
2022-08-18T11:21:57.474Z,9.90
2022-08-18T11:23:30.348Z,10.80
2022-08-18T11:25:18.680Z,10.88
2022-08-18T11:26:54.971Z,10.25
2022-08-18T11:28:30.651Z,10.13
2022-08-18T11:30:06.342Z,10.80
2022-08-18T11:31:38.391Z,10.95
2022-08-18T11:33:15.573Z,9.30
2022-08-18T11:35:02.749Z,9.82
2022-08-18T11:36:39.425Z,10.60
2022-08-18T11:38:23.925Z,11.18
2022-08-18T11:40:06.065Z,9.55
2022-08-18T11:41:49.448Z,9.38
2022-08-18T11:43:29.650Z,10.55
2022-08-18T11:45:08.522Z,11.15
2022-08-18T11:46:40.784Z,10.32
2022-08-18T11:50:25.957Z,10.48
2022-08-18T11:52:02.524Z,10.05
2022-08-18T11:53:43.158Z,9.57
2022-08-18T11:55:24.001Z,10.88
2022-08-18T11:59:54.797Z,10.07
2022-08-18T12:01:42.232Z,10.55
2022-08-18T12:03:23.818Z,10.80
2022-08-18T12:05:03.350Z,11.02
2022-08-18T12:06:52.037Z,13.15
2022-08-18T12:08:58.161Z,11.55
2022-08-18T12:10:28.978Z,11.48
2022-08-18T12:12:05.070Z,10.98
2022-08-18T12:13:36.801Z,11.50
2022-08-18T12:15:29.562Z,11.82
2022-08-18T12:17:16.508Z,12.30
2022-08-18T12:18:50.845Z,11.75
2022-08-18T12:20:25.596Z,12.68
2022-08-18T12:21:59.374Z,12.73
2022-08-18T12:23:44.497Z,16.33
2022-08-18T12:25:25.148Z,16.63
2022-08-18T12:27:01.009Z,16.55
2022-08-18T12:28:32.769Z,16.85
2022-08-18T12:30:06.328Z,14.38
2022-08-18T12:31:47.459Z,15.45
2022-08-18T12:33:25.273Z,16.40
2022-08-18T12:35:09.430Z,15.90
2022-08-18T12:36:41.716Z,17.30
2022-08-18T12:38:17.796Z,19.67
2022-08-18T12:39:50.502Z,16.05
2022-08-18T12:41:23.852Z,17.38
2022-08-18T12:42:57.178Z,18.45
2022-08-18T12:44:29.677Z,14.55
2022-08-18T12:46:02.439Z,11.00
2022-08-18T12:47:40.042Z,8.95
2022-08-18T12:49:16.917Z,16.88
2022-08-18T12:50:54.028Z,19.10
2022-08-18T12:52:27.419Z,21.90
2022-08-18T12:54:00.170Z,23.55
2022-08-18T12:55:36.183Z,20.25
2022-08-18T12:59:14.262Z,19.48
2022-08-18T13:00:48.073Z,19.38
2022-08-18T13:02:23.310Z,18.23
2022-08-18T13:04:13.184Z,19.35
2022-08-18T13:05:46.955Z,16.85
2022-08-18T13:07:19.481Z,17.00
2022-08-18T13:08:57.053Z,17.67
2022-08-18T13:10:43.032Z,15.38
2022-08-18T13:12:19.478Z,15.88
2022-08-18T13:13:55.952Z,17.05
2022-08-18T13:15:30.093Z,16.95
2022-08-18T13:17:02.257Z,15.85
2022-08-18T13:18:34.210Z,16.08
2022-08-18T13:20:10.669Z,16.38
2022-08-18T13:21:45.252Z,16.15
2022-08-18T13:23:20.140Z,15.50
2022-08-18T13:24:56.462Z,14.55
2022-08-18T13:26:31.089Z,14.23
2022-08-18T13:28:03.313Z,14.27
2022-08-18T13:29:35.086Z,14.82
2022-08-18T13:31:09.732Z,15.18
2022-08-18T13:32:58.417Z,15.30
2022-08-18T13:34:33.589Z,14.70
2022-08-18T13:36:05.778Z,14.60
2022-08-18T13:37:37.647Z,14.23
2022-08-18T13:39:11.830Z,14.18
2022-08-18T13:40:47.090Z,14.48
2022-08-18T13:42:26.750Z,13.27
2022-08-18T13:44:01.227Z,12.07
2022-08-18T13:45:35.209Z,11.50
2022-08-18T13:47:10.517Z,11.30
2022-08-18T13:48:43.170Z,10.70
2022-08-18T13:50:16.535Z,11.95
2022-08-18T13:51:58.049Z,12.52
2022-08-18T13:53:32.370Z,11.45
2022-08-18T13:55:08.374Z,11.98
2022-08-18T13:56:40.382Z,11.90
2022-08-18T13:58:20.253Z,11.40
2022-08-18T13:59:52.859Z,11.32
2022-08-18T14:01:45.014Z,12.50
2022-08-18T14:03:20.465Z,11.63
2022-08-18T14:05:09.758Z,12.18
2022-08-18T14:06:51.181Z,11.77
2022-08-18T14:08:29.151Z,11.43
2022-08-18T14:10:04.914Z,10.68
2022-08-18T14:11:37.905Z,11.07
2022-08-18T14:13:20.949Z,11.20
2022-08-18T14:14:57.128Z,11.07
2022-08-18T14:16:29.073Z,10.75
2022-08-18T14:18:02.592Z,10.55
2022-08-18T14:19:57.550Z,11.02
2022-08-18T14:21:47.770Z,10.25
2022-08-18T14:23:39.415Z,9.73
2022-08-18T14:25:42.148Z,8.63
2022-08-18T14:27:14.252Z,9.77
2022-08-18T14:28:47.583Z,9.50
2022-08-18T14:30:20.117Z,9.52
2022-08-18T14:31:53.125Z,9.52
2022-08-18T14:33:34.023Z,9.15
2022-08-18T14:36:03.775Z,10.60
2022-08-18T14:37:14.318Z,9.57
2022-08-18T14:38:46.993Z,9.38
2022-08-18T14:40:23.747Z,9.48
2022-08-18T14:41:58.470Z,8.88
2022-08-18T14:44:04.032Z,9.15
2022-08-18T14:45:28.060Z,9.35
2022-08-18T14:47:03.610Z,9.20
2022-08-18T14:48:36.997Z,9.00
2022-08-18T14:50:12.878Z,7.70
2022-08-18T14:51:49.339Z,8.90
2022-08-18T14:53:23.418Z,9.35
2022-08-18T14:54:55.405Z,9.57
2022-08-18T14:56:28.530Z,8.63
2022-08-18T14:58:01.404Z,8.65
2022-08-18T14:59:34.650Z,10.27
2022-08-18T15:01:11.773Z,8.90
2022-08-18T15:02:44.653Z,8.50
2022-08-18T15:04:19.442Z,8.98
2022-08-18T15:05:51.529Z,8.52
2022-08-18T15:07:25.852Z,8.05
2022-08-18T15:08:57.634Z,7.93
2022-08-18T15:10:30.172Z,8.95
2022-08-18T15:12:03.673Z,8.02
2022-08-18T15:13:38.363Z,8.90
2022-08-18T15:15:12.960Z,8.38
2022-08-18T15:18:22.879Z,8.25
2022-08-18T15:19:59.945Z,7.78
2022-08-18T15:21:51.591Z,7.50
2022-08-18T15:23:45.081Z,7.68
2022-08-18T15:25:50.926Z,7.80
2022-08-18T15:27:42.963Z,7.95
2022-08-18T15:29:15.026Z,7.90
2022-08-18T15:30:50.997Z,7.63
2022-08-18T15:32:24.331Z,7.63
2022-08-18T15:33:57.544Z,7.43
2022-08-18T15:35:29.585Z,6.78
2022-08-18T15:37:09.801Z,6.50
2022-08-18T15:40:30.136Z,6.95
2022-08-18T15:42:10.422Z,6.90
2022-08-18T15:43:46.259Z,6.88
2022-08-18T15:45:21.694Z,7.53
2022-08-18T15:46:58.466Z,7.10
2022-08-18T15:48:30.866Z,6.70
2022-08-18T15:50:06.705Z,6.88
2022-08-18T15:51:53.737Z,6.82
2022-08-18T15:53:29.965Z,6.00
2022-08-18T15:55:03.950Z,6.47
2022-08-18T15:56:43.265Z,6.38
2022-08-18T15:58:15.191Z,6.30
2022-08-18T15:59:55.881Z,6.30
2022-08-18T16:01:32.022Z,6.00
2022-08-18T16:03:08.845Z,6.28
2022-08-18T16:04:41.393Z,6.10
2022-08-18T16:06:20.456Z,6.60
2022-08-18T16:07:53.956Z,7.53
2022-08-18T16:09:25.830Z,6.30
2022-08-18T16:10:58.998Z,6.80
2022-08-18T16:12:30.753Z,6.90
2022-08-18T16:14:02.553Z,7.15
2022-08-18T16:15:37.051Z,6.47
2022-08-18T16:17:18.280Z,6.60
2022-08-18T16:18:55.754Z,6.18
2022-08-18T16:20:29.475Z,6.50
2022-08-18T16:22:06.192Z,6.28
2022-08-18T16:23:38.872Z,6.45
2022-08-18T16:25:11.407Z,7.07
2022-08-18T16:26:44.490Z,6.10
2022-08-18T16:28:16.223Z,6.50
2022-08-18T16:29:49.173Z,6.05
2022-08-18T16:31:26.208Z,6.15
2022-08-18T16:33:03.553Z,5.93
2022-08-18T16:34:35.320Z,6.20
2022-08-18T16:36:09.305Z,6.50
2022-08-18T16:37:41.195Z,6.10
2022-08-18T16:39:12.927Z,6.38
2022-08-18T16:40:45.434Z,5.97
2022-08-18T16:42:18.604Z,5.93
2022-08-18T16:43:50.361Z,6.07
2022-08-18T16:45:22.686Z,6.78
2022-08-18T16:46:54.441Z,6.00
2022-08-18T16:49:59.098Z,6.13
2022-08-18T16:51:31.452Z,6.13
2022-08-18T16:53:03.508Z,6.13
2022-08-18T16:54:35.324Z,6.40
2022-08-18T16:56:11.521Z,6.28
2022-08-18T16:58:03.409Z,6.20
2022-08-18T16:59:53.923Z,6.05
2022-08-18T17:01:49.101Z,6.32
2022-08-18T17:03:39.806Z,6.18
2022-08-18T17:05:12.197Z,6.18
2022-08-18T17:06:47.415Z,6.00
2022-08-18T17:08:19.759Z,5.85
2022-08-18T17:09:52.679Z,6.10
2022-08-18T17:11:27.178Z,6.13
2022-08-18T17:13:00.302Z,6.55
2022-08-18T17:14:38.649Z,6.35
2022-08-18T17:16:10.703Z,6.57
2022-08-18T17:17:42.375Z,6.32
2022-08-18T17:19:14.379Z,6.30
2022-08-18T17:20:46.473Z,6.80
2022-08-18T17:22:18.382Z,6.50
2022-08-18T17:23:51.590Z,6.47
2022-08-18T17:25:26.663Z,6.28
2022-08-18T17:27:26.265Z,6.80
2022-08-18T17:29:05.744Z,6.70
2022-08-18T17:30:45.485Z,6.53
2022-08-18T17:32:20.266Z,6.50
2022-08-18T17:33:57.246Z,6.55
2022-08-18T17:35:34.865Z,6.90
2022-08-18T17:37:10.434Z,6.57
2022-08-18T17:38:47.818Z,7.32
2022-08-18T17:40:28.665Z,6.65
2022-08-18T17:42:19.317Z,7.13
2022-08-18T17:43:54.636Z,6.40
2022-08-18T17:45:35.006Z,6.70
2022-08-18T17:48:47.322Z,6.72
2022-08-18T17:50:44.554Z,6.88
2022-08-18T17:52:16.452Z,6.60
2022-08-18T17:53:50.795Z,6.82
2022-08-18T17:55:26.867Z,6.85
2022-08-18T17:57:05.479Z,7.35
2022-08-18T17:58:40.725Z,6.80
2022-08-18T18:00:16.391Z,6.82
2022-08-18T18:02:08.399Z,6.22
2022-08-18T18:03:54.066Z,6.63
2022-08-18T18:05:35.247Z,6.82
2022-08-18T18:07:19.972Z,6.88
2022-08-18T18:08:55.778Z,6.80
2022-08-18T18:10:51.041Z,7.05
2022-08-18T18:12:26.384Z,7.38
2022-08-18T18:13:59.719Z,7.25
2022-08-18T18:15:33.438Z,6.93
2022-08-18T18:17:14.448Z,6.78
2022-08-18T18:18:46.610Z,6.97
2022-08-18T18:20:38.022Z,6.72
2022-08-18T18:22:17.190Z,7.15
2022-08-18T18:23:51.575Z,7.35
2022-08-18T18:25:34.575Z,7.10
2022-08-18T18:27:30.790Z,7.45
2022-08-18T18:29:21.996Z,7.15
2022-08-18T18:30:57.947Z,7.35
2022-08-18T18:32:36.287Z,7.15
2022-08-18T18:34:23.061Z,6.88
2022-08-18T18:36:00.615Z,7.18
2022-08-18T18:37:33.080Z,7.15
2022-08-18T18:39:09.857Z,7.22
2022-08-18T18:40:55.603Z,6.68
2022-08-18T18:42:29.688Z,7.63
2022-08-18T18:44:06.852Z,7.70
2022-08-18T18:45:38.813Z,7.20
2022-08-18T18:47:24.612Z,7.40
2022-08-18T18:49:10.096Z,6.90
2022-08-18T18:50:55.680Z,7.57
2022-08-18T18:52:37.530Z,6.70
2022-08-18T18:54:22.760Z,7.10
2022-08-18T18:56:05.010Z,7.07
2022-08-18T18:57:48.497Z,6.60
2022-08-18T18:59:35.571Z,6.22
2022-08-18T19:01:17.210Z,6.40
2022-08-18T19:03:05.074Z,7.28
2022-08-18T19:04:43.648Z,7.00
2022-08-18T19:06:26.875Z,7.32
2022-08-18T19:08:05.886Z,6.93
2022-08-18T19:09:50.288Z,6.93
2022-08-18T19:11:29.507Z,6.88
2022-08-18T19:13:05.719Z,6.43
2022-08-18T19:14:42.008Z,6.60
2022-08-18T19:16:27.435Z,6.88
2022-08-18T19:18:02.933Z,7.07
2022-08-18T19:19:39.490Z,7.15
2022-08-18T19:22:03.912Z,7.13
2022-08-18T19:23:34.222Z,6.95
2022-08-18T19:25:21.871Z,6.90
2022-08-18T19:26:59.934Z,7.03
2022-08-18T19:29:01.243Z,7.07
2022-08-18T19:30:29.446Z,6.82
2022-08-18T19:32:07.250Z,7.15
2022-08-18T19:33:44.927Z,7.35
2022-08-18T19:35:35.301Z,7.22
2022-08-18T19:37:27.560Z,7.07
2022-08-18T19:39:10.319Z,6.75
2022-08-18T19:40:51.374Z,7.10
2022-08-18T19:42:35.234Z,7.05
2022-08-18T19:44:17.678Z,7.75
2022-08-18T19:46:02.469Z,7.10
2022-08-18T19:47:47.554Z,7.28
2022-08-18T19:49:30.725Z,7.78
2022-08-18T19:51:08.423Z,7.38
2022-08-18T19:53:01.699Z,7.55
2022-08-18T19:54:45.861Z,7.10
2022-08-18T19:56:40.117Z,7.43
2022-08-18T19:59:11.534Z,6.72
2022-08-18T20:00:52.231Z,7.00
2022-08-18T20:02:39.499Z,7.05
2022-08-18T20:04:27.516Z,7.65
2022-08-18T20:06:34.751Z,7.85
2022-08-18T20:08:32.901Z,7.45
2022-08-18T20:10:34.061Z,7.70
2022-08-18T20:12:20.822Z,7.13
2022-08-18T20:13:56.800Z,8.00
2022-08-18T20:15:39.448Z,7.95
2022-08-18T20:17:18.789Z,7.72
2022-08-18T20:18:55.217Z,7.53
2022-08-18T20:20:29.875Z,7.63
2022-08-18T20:22:05.346Z,7.60
2022-08-18T20:23:59.172Z,8.18
2022-08-18T20:25:43.112Z,7.93
2022-08-18T20:27:32.785Z,7.18
2022-08-18T20:29:11.807Z,7.45
2022-08-18T20:30:56.767Z,7.18
2022-08-18T20:32:31.943Z,8.40
2022-08-18T20:34:14.119Z,9.10
2022-08-18T20:35:53.124Z,7.97
2022-08-18T20:37:25.745Z,7.72
2022-08-18T20:39:20.599Z,8.15
2022-08-18T20:40:54.094Z,8.35
2022-08-18T20:43:06.556Z,8.30
2022-08-18T20:44:57.237Z,8.57
2022-08-18T20:46:42.668Z,8.20
2022-08-18T20:48:34.681Z,8.57
2022-08-18T20:50:41.965Z,8.82
2022-08-18T20:52:24.267Z,8.77
2022-08-18T20:54:13.638Z,9.13
2022-08-18T20:55:53.073Z,9.18
2022-08-18T20:59:08.572Z,8.40
2022-08-18T21:00:45.149Z,8.48
2022-08-18T21:02:28.048Z,8.80
2022-08-18T21:04:00.168Z,8.63
2022-08-18T21:05:35.812Z,8.73
2022-08-18T21:07:16.522Z,8.73
2022-08-18T21:08:51.201Z,9.55
2022-08-18T21:10:30.008Z,9.60
2022-08-18T21:12:02.222Z,9.38
2022-08-18T21:13:39.510Z,9.85
2022-08-18T21:15:11.517Z,9.13
2022-08-18T21:16:45.511Z,9.00
2022-08-18T21:18:19.785Z,8.93
2022-08-18T21:19:57.972Z,8.93
2022-08-18T21:21:32.583Z,8.85
2022-08-18T21:23:07.261Z,9.18
2022-08-18T21:24:42.837Z,8.88
2022-08-18T21:26:17.187Z,9.25
2022-08-18T21:27:48.929Z,8.85
2022-08-18T21:29:46.955Z,9.00
2022-08-18T21:31:41.772Z,8.85
2022-08-18T21:33:20.510Z,9.00
2022-08-18T21:34:54.285Z,8.93
2022-08-18T21:36:34.219Z,8.98
2022-08-18T21:38:09.571Z,8.38
2022-08-18T21:39:51.019Z,9.38
2022-08-18T21:41:31.067Z,9.30
2022-08-18T21:43:14.165Z,8.75
2022-08-18T21:44:47.655Z,9.20
2022-08-18T21:46:29.585Z,8.90
2022-08-18T21:48:06.864Z,9.18
2022-08-18T21:49:38.637Z,8.60
2022-08-18T21:51:18.406Z,9.60
2022-08-18T21:54:34.434Z,8.63
2022-08-18T21:56:08.823Z,9.30
2022-08-18T21:57:51.747Z,9.55